createdAt,value
2023-05-06T00:02:02.613Z,96563.28
2023-05-06T00:04:34.213Z,96565.28
2023-05-06T00:07:19.369Z,96568.94
2023-05-06T00:09:47.532Z,96534.19
2023-05-06T00:12:16.154Z,96550.97
2023-05-06T00:14:46.208Z,96532.25
2023-05-06T00:17:14.438Z,96584.53
2023-05-06T00:19:44.481Z,96554.63
2023-05-06T00:22:12.883Z,96561.00
2023-05-06T00:24:42.424Z,96560.72
2023-05-06T00:27:10.745Z,96574.03
2023-05-06T00:29:38.924Z,96567.28
2023-05-06T00:32:07.477Z,96587.53
2023-05-06T00:34:35.853Z,96562.53
2023-05-06T00:37:04.475Z,96549.25
2023-05-06T00:39:33.535Z,96553.19
2023-05-06T00:42:03.444Z,96564.84
2023-05-06T00:44:32.846Z,96605.13
2023-05-06T00:47:02.832Z,96596.66
2023-05-06T00:49:31.729Z,96552.25
2023-05-06T00:52:01.192Z,96598.28
2023-05-06T00:54:29.973Z,96531.63
2023-05-06T00:56:58.474Z,96550.31
2023-05-06T00:59:30.299Z,96539.03
2023-05-06T01:01:59.312Z,96536.28
2023-05-06T01:04:29.693Z,96539.97
2023-05-06T01:07:07.038Z,96573.03
2023-05-06T01:09:44.138Z,96565.28
2023-05-06T01:12:22.482Z,96514.59
2023-05-06T01:15:06.480Z,96529.38
2023-05-06T01:17:38.278Z,96520.25
2023-05-06T01:20:11.751Z,96519.16
2023-05-06T01:22:40.980Z,96548.50
2023-05-06T01:25:20.527Z,96411.50
2023-05-06T01:27:49.714Z,96584.44
2023-05-06T01:30:19.560Z,96571.03
2023-05-06T01:32:59.566Z,96558.53
2023-05-06T01:35:35.984Z,96565.19
2023-05-06T01:38:13.960Z,96525.81
2023-05-06T01:40:45.643Z,96504.09
2023-05-06T01:43:15.525Z,96570.47
2023-05-06T01:45:49.438Z,96542.03
2023-05-06T01:48:18.844Z,96547.03
2023-05-06T01:50:47.206Z,96548.94
2023-05-06T01:53:15.463Z,96540.47
2023-05-06T01:55:45.072Z,96597.69
2023-05-06T01:58:13.283Z,96554.41
2023-05-06T02:00:42.937Z,96548.84
2023-05-06T02:03:34.913Z,96606.63
2023-05-06T02:06:03.416Z,96492.00
2023-05-06T02:08:35.834Z,96557.63
2023-05-06T02:11:12.994Z,96558.16
2023-05-06T02:13:42.620Z,96555.25
2023-05-06T02:16:15.895Z,96581.13
2023-05-06T02:18:44.355Z,96544.94
2023-05-06T02:21:12.776Z,96578.97
2023-05-06T02:23:41.032Z,96560.47
2023-05-06T02:26:10.607Z,96555.16
2023-05-06T02:28:38.940Z,96535.03
2023-05-06T02:31:07.251Z,96553.69
2023-05-06T02:33:35.919Z,96557.53
2023-05-06T02:36:06.177Z,96532.47
2023-05-06T02:38:34.772Z,96596.69
2023-05-06T02:41:03.701Z,96550.25
2023-05-06T02:43:33.638Z,96561.44
2023-05-06T02:46:01.967Z,96559.88
2023-05-06T02:48:30.241Z,96562.09
2023-05-06T02:50:58.595Z,96562.53
2023-05-06T02:53:26.820Z,96388.09
2023-05-06T02:55:55.064Z,96625.41
2023-05-06T02:58:23.339Z,96605.53
2023-05-06T03:00:52.982Z,96526.94
2023-05-06T03:03:22.054Z,96551.41
2023-05-06T03:05:50.295Z,96542.72
2023-05-06T03:08:18.841Z,96475.59
2023-05-06T03:10:47.524Z,96498.56
2023-05-06T03:13:18.921Z,96556.50
2023-05-06T03:15:54.921Z,96553.31
2023-05-06T03:18:23.602Z,96551.75
2023-05-06T03:20:52.213Z,96560.59
2023-05-06T03:23:20.851Z,96486.59
2023-05-06T03:25:49.458Z,96557.94
2023-05-06T03:28:18.645Z,96521.22
2023-05-06T03:30:48.324Z,96551.56
2023-05-06T03:33:18.631Z,96559.78
2023-05-06T03:35:46.853Z,96541.69
2023-05-06T03:38:15.199Z,96551.00
2023-05-06T03:40:49.929Z,96544.66
2023-05-06T03:43:18.422Z,96519.63
2023-05-06T03:45:49.759Z,96511.81
2023-05-06T03:48:19.435Z,96554.63
2023-05-06T03:50:47.876Z,96526.22
2023-05-06T03:53:17.293Z,96515.75
2023-05-06T03:55:47.909Z,96534.09
2023-05-06T03:58:16.276Z,96513.16
2023-05-06T04:00:46.669Z,96557.84
2023-05-06T04:03:15.068Z,96509.09
2023-05-06T04:08:44.137Z,96520.78
2023-05-06T04:11:37.218Z,96518.94
2023-05-06T04:14:07.664Z,96505.84
2023-05-06T04:16:37.050Z,96514.31
2023-05-06T04:19:07.005Z,96472.66
2023-05-06T04:21:39.291Z,96548.38
2023-05-06T04:24:11.591Z,96517.13
2023-05-06T04:26:41.058Z,96482.16
2023-05-06T04:29:09.768Z,96564.47
2023-05-06T04:31:45.187Z,96590.94
2023-05-06T04:34:16.626Z,96545.91
2023-05-06T04:36:47.653Z,96538.72
2023-05-06T04:39:27.238Z,96499.44
2023-05-06T04:41:55.773Z,96550.38
2023-05-06T04:44:30.934Z,96549.63
2023-05-06T04:46:59.320Z,96578.91
2023-05-06T04:49:27.520Z,96570.63
2023-05-06T04:51:58.235Z,96557.53
2023-05-06T04:54:27.277Z,96549.94
2023-05-06T04:56:55.715Z,96593.66
2023-05-06T04:59:24.442Z,96607.41
2023-05-06T05:01:53.782Z,96585.72
2023-05-06T05:04:22.198Z,96604.00
2023-05-06T05:06:50.529Z,96582.47
2023-05-06T05:09:20.189Z,96598.19
2023-05-06T05:11:49.806Z,96590.28
2023-05-06T05:14:18.057Z,96592.03
2023-05-06T05:16:46.536Z,96545.91
2023-05-06T05:19:16.076Z,96573.38
2023-05-06T05:21:44.334Z,96597.44
2023-05-06T05:24:14.394Z,96540.09
2023-05-06T05:26:43.994Z,96568.91
2023-05-06T05:29:12.331Z,96553.78
2023-05-06T05:31:40.964Z,96562.91
2023-05-06T05:34:09.291Z,96570.19
2023-05-06T05:36:38.241Z,96622.91
2023-05-06T05:39:09.253Z,96618.13
2023-05-06T05:41:44.497Z,96572.81
2023-05-06T05:44:13.412Z,96614.84
2023-05-06T05:46:42.557Z,96626.41
2023-05-06T05:49:14.036Z,96603.69
2023-05-06T05:51:42.940Z,96613.19
2023-05-06T05:54:14.278Z,96613.34
2023-05-06T05:56:44.691Z,96626.34
2023-05-06T05:59:12.991Z,96644.25
2023-05-06T06:01:41.730Z,96615.13
2023-05-06T06:04:10.930Z,96606.66
2023-05-06T06:06:39.315Z,96645.09
2023-05-06T06:09:07.697Z,96639.50
2023-05-06T06:11:47.400Z,96646.69
2023-05-06T06:14:18.091Z,96604.88
2023-05-06T06:16:49.742Z,96636.28
2023-05-06T06:19:19.499Z,96620.47
2023-05-06T06:21:47.718Z,96664.16
2023-05-06T06:24:16.606Z,96626.22
2023-05-06T06:26:44.889Z,96569.50
2023-05-06T06:29:14.520Z,96660.78
2023-05-06T06:31:42.774Z,96634.78
2023-05-06T06:34:12.743Z,96663.38
2023-05-06T06:36:45.171Z,96634.03
2023-05-06T06:39:13.582Z,96614.88
2023-05-06T06:41:41.847Z,96588.72
2023-05-06T06:44:10.078Z,96661.84
2023-05-06T06:46:39.928Z,96660.78
2023-05-06T06:49:08.146Z,96629.88
2023-05-06T06:51:36.404Z,96621.66
2023-05-06T06:54:04.734Z,96610.06
2023-05-06T06:56:33.020Z,96569.50
2023-05-06T06:59:01.252Z,96639.59
2023-05-06T07:01:29.556Z,96659.81
2023-05-06T07:03:59.196Z,96609.53
2023-05-06T07:06:27.413Z,96624.84
2023-05-06T07:08:55.984Z,96675.88
2023-05-06T07:11:24.348Z,96671.50
2023-05-06T07:13:52.588Z,96597.59
2023-05-06T07:16:20.874Z,96550.22
2023-05-06T07:18:50.112Z,96673.19
2023-05-06T07:21:19.786Z,96719.84
2023-05-06T07:23:48.095Z,96637.81
2023-05-06T07:26:16.342Z,96694.56
2023-05-06T07:28:44.604Z,96594.19
2023-05-06T07:31:12.824Z,96734.72
2023-05-06T07:33:41.032Z,96689.88
2023-05-06T07:36:09.724Z,96683.84
2023-05-06T07:38:39.507Z,96630.56
2023-05-06T07:41:07.764Z,96678.56
2023-05-06T07:43:36.094Z,96650.16
2023-05-06T07:46:05.633Z,96632.94
2023-05-06T07:48:34.165Z,96678.78
2023-05-06T07:51:02.515Z,96633.75
2023-05-06T07:53:31.001Z,96612.16
2023-05-06T07:56:02.272Z,96598.41
2023-05-06T07:58:32.713Z,96605.44
2023-05-06T08:01:01.052Z,96615.22
2023-05-06T08:03:29.309Z,96623.38
2023-05-06T08:05:57.894Z,96647.03
2023-05-06T08:08:27.915Z,96677.94
2023-05-06T08:10:57.251Z,96650.66
2023-05-06T08:13:28.103Z,96650.69
2023-05-06T08:15:57.374Z,96663.94
2023-05-06T08:18:25.782Z,96672.75
2023-05-06T08:20:54.042Z,96661.94
2023-05-06T08:23:22.400Z,96604.75
2023-05-06T08:25:51.292Z,96656.97
2023-05-06T08:28:19.513Z,96713.97
2023-05-06T08:30:51.312Z,96677.41
2023-05-06T08:33:20.378Z,96655.63
2023-05-06T08:35:49.519Z,96483.56
2023-05-06T08:38:17.812Z,96647.28
2023-05-06T08:40:46.536Z,96662.25
2023-05-06T08:43:16.314Z,96672.31
2023-05-06T08:45:44.696Z,96634.97
2023-05-06T08:48:14.368Z,96697.56
2023-05-06T08:50:44.276Z,96661.00
2023-05-06T08:53:13.831Z,96681.72
2023-05-06T08:55:42.857Z,96643.06
2023-05-06T08:58:15.738Z,96661.69
2023-05-06T09:00:45.126Z,96632.66
2023-05-06T09:03:14.882Z,96676.44
2023-05-06T09:05:43.386Z,96609.56
2023-05-06T09:08:11.665Z,96678.06
2023-05-06T09:10:45.039Z,96686.47
2023-05-06T09:13:15.416Z,96691.56
2023-05-06T09:15:45.023Z,96644.56
2023-05-06T09:18:15.029Z,96666.03
2023-05-06T09:20:45.394Z,96637.59
2023-05-06T09:23:16.909Z,96705.56
2023-05-06T09:25:47.770Z,96657.28
2023-05-06T09:28:16.036Z,96629.41
2023-05-06T09:30:47.684Z,96655.19
2023-05-06T09:33:17.697Z,96648.88
2023-05-06T09:35:46.154Z,96678.13
2023-05-06T09:38:14.415Z,96685.91
2023-05-06T09:40:42.723Z,96625.31
2023-05-06T09:43:12.402Z,96685.94
2023-05-06T09:45:40.807Z,96678.72
2023-05-06T09:48:10.109Z,96647.16
2023-05-06T09:50:40.557Z,96637.25
2023-05-06T09:53:09.815Z,96662.44
2023-05-06T09:55:39.187Z,96657.63
2023-05-06T09:58:09.353Z,96627.91
2023-05-06T10:00:38.254Z,96650.78
2023-05-06T10:03:07.124Z,96668.75
2023-05-06T10:05:38.986Z,96676.00
2023-05-06T10:08:08.655Z,96694.50
2023-05-06T10:11:02.998Z,96649.41
2023-05-06T10:13:55.632Z,96624.38
2023-05-06T10:16:24.444Z,96652.97
2023-05-06T10:18:55.955Z,96684.22
2023-05-06T10:21:29.062Z,96666.75
2023-05-06T10:24:08.970Z,96584.50
2023-05-06T10:26:38.976Z,96614.25
2023-05-06T10:29:11.552Z,96650.41
2023-05-06T10:31:50.326Z,96630.34
2023-05-06T10:34:21.689Z,96668.69
2023-05-06T10:36:56.562Z,96618.66
2023-05-06T10:39:25.528Z,96646.84
2023-05-06T10:41:53.886Z,96640.88
2023-05-06T10:45:01.127Z,96579.09
2023-05-06T10:47:29.424Z,96619.72
2023-05-06T10:50:19.955Z,96651.25
2023-05-06T10:52:52.906Z,96596.50
2023-05-06T10:55:30.932Z,96627.34
2023-05-06T10:58:03.592Z,96659.44
2023-05-06T11:00:36.123Z,96335.41
2023-05-06T11:03:08.316Z,96592.66
2023-05-06T11:05:49.274Z,96600.84
2023-05-06T11:08:25.218Z,96604.25
2023-05-06T11:10:53.567Z,96595.72
2023-05-06T11:13:24.873Z,96620.78
2023-05-06T11:15:53.413Z,96582.25
2023-05-06T11:18:47.247Z,96587.44
2023-05-06T11:21:38.762Z,96624.34
2023-05-06T11:24:13.397Z,96590.31
2023-05-06T11:26:43.112Z,96551.13
2023-05-06T11:29:11.353Z,96596.28
2023-05-06T11:31:42.137Z,96643.19
2023-05-06T11:34:14.624Z,96576.31
2023-05-06T11:36:58.225Z,96572.81
2023-05-06T11:39:30.716Z,96623.72
2023-05-06T11:42:00.638Z,96548.06
2023-05-06T11:44:32.060Z,96571.84
2023-05-06T11:47:03.049Z,96633.22
2023-05-06T11:49:32.028Z,96637.09
2023-05-06T11:52:00.279Z,96610.47
2023-05-06T11:54:29.946Z,96588.38
2023-05-06T11:56:58.209Z,96589.38
2023-05-06T11:59:31.327Z,96590.69
2023-05-06T12:02:02.819Z,96578.22
2023-05-06T12:04:39.619Z,96590.56
2023-05-06T12:07:09.362Z,96609.78
2023-05-06T12:09:41.818Z,96554.91
2023-05-06T12:12:12.541Z,96515.44
2023-05-06T12:14:41.397Z,96605.75
2023-05-06T12:17:10.185Z,96501.28
2023-05-06T12:19:39.786Z,96554.72
2023-05-06T12:22:22.014Z,96585.56
2023-05-06T12:24:52.030Z,96574.22
2023-05-06T12:27:33.547Z,96609.34
2023-05-06T12:30:04.149Z,96540.69
2023-05-06T12:32:32.617Z,96567.31
2023-05-06T12:35:05.774Z,96588.13
2023-05-06T12:37:34.177Z,96595.16
2023-05-06T12:40:03.942Z,96548.53
2023-05-06T12:42:32.233Z,96513.22
2023-05-06T12:45:14.744Z,96512.66
2023-05-06T12:47:54.439Z,96611.88
2023-05-06T12:50:33.810Z,96557.03
2023-05-06T12:53:02.453Z,96576.69
2023-05-06T12:55:33.183Z,96584.44
2023-05-06T12:58:01.522Z,96497.88
2023-05-06T13:00:29.837Z,96538.03
2023-05-06T13:02:58.072Z,96548.53
2023-05-06T13:05:26.345Z,96583.16
2023-05-06T13:07:54.556Z,96539.22
2023-05-06T13:10:22.752Z,96543.16
2023-05-06T13:12:52.428Z,96569.72
2023-05-06T13:15:20.727Z,96562.63
2023-05-06T13:17:50.061Z,96582.84
2023-05-06T13:20:19.475Z,96482.88
2023-05-06T13:22:54.308Z,96480.56
2023-05-06T13:25:23.808Z,96529.06
2023-05-06T13:27:54.417Z,96575.41
2023-05-06T13:30:23.216Z,96565.97
2023-05-06T13:32:51.985Z,96518.03
2023-05-06T13:35:20.457Z,96516.72
2023-05-06T13:37:48.705Z,96540.06
2023-05-06T13:40:17.046Z,96538.53
2023-05-06T13:42:45.344Z,96531.75
2023-05-06T13:45:15.713Z,96459.56
2023-05-06T13:47:44.225Z,96506.56
2023-05-06T13:50:12.857Z,96533.28
2023-05-06T13:52:41.302Z,96522.81
2023-05-06T13:55:10.579Z,96496.94
2023-05-06T13:57:39.024Z,96482.78
2023-05-06T14:00:10.870Z,96534.56
2023-05-06T14:02:47.045Z,96521.75
2023-05-06T14:05:39.911Z,96418.56
2023-05-06T14:08:08.963Z,96482.13
2023-05-06T14:10:38.755Z,96455.97
2023-05-06T14:13:12.286Z,96474.03
2023-05-06T14:15:41.049Z,96496.28
2023-05-06T14:18:10.860Z,96490.75
2023-05-06T14:20:39.427Z,96498.72
2023-05-06T14:23:07.627Z,96471.50
2023-05-06T14:25:35.828Z,96471.06
2023-05-06T14:28:04.186Z,96509.94
2023-05-06T14:30:34.151Z,96481.34
2023-05-06T14:33:02.423Z,96505.44
2023-05-06T14:35:32.147Z,96441.94
2023-05-06T14:38:00.773Z,96499.50
2023-05-06T14:40:29.110Z,96519.38
2023-05-06T14:42:57.345Z,96480.53
2023-05-06T14:45:25.581Z,96480.63
2023-05-06T14:47:53.858Z,96458.91
2023-05-06T14:50:22.366Z,96461.88
2023-05-06T14:52:51.830Z,96446.97
2023-05-06T14:55:20.254Z,96421.44
2023-05-06T14:57:48.497Z,96473.47
2023-05-06T15:00:18.417Z,96412.59
2023-05-06T15:02:46.640Z,96404.56
2023-05-06T15:05:15.157Z,96441.91
2023-05-06T15:07:43.720Z,96464.22
2023-05-06T15:10:13.449Z,96495.94
2023-05-06T15:12:41.728Z,96461.34
2023-05-06T15:15:11.053Z,96488.59
2023-05-06T15:17:41.282Z,96369.84
2023-05-06T15:20:10.785Z,96503.03
2023-05-06T15:22:39.676Z,96396.63
2023-05-06T15:25:12.343Z,96469.28
2023-05-06T15:27:44.071Z,96461.78
2023-05-06T15:30:13.447Z,96423.16
2023-05-06T15:32:41.629Z,96402.69
2023-05-06T15:35:10.855Z,96402.59
2023-05-06T15:37:39.229Z,96481.09
2023-05-06T15:40:12.262Z,96411.88
2023-05-06T15:42:41.143Z,96458.13
2023-05-06T15:45:12.960Z,96419.25
2023-05-06T15:47:41.238Z,96453.66
2023-05-06T15:50:20.102Z,96460.16
2023-05-06T15:52:49.476Z,96468.94
2023-05-06T15:55:19.019Z,96480.56
2023-05-06T15:57:47.661Z,96479.31
2023-05-06T16:00:17.893Z,96449.97
2023-05-06T16:02:46.244Z,96479.50
2023-05-06T16:05:16.614Z,96437.56
2023-05-06T16:07:45.066Z,96418.38
2023-05-06T16:10:13.426Z,96475.91
2023-05-06T16:12:55.803Z,96475.78
2023-05-06T16:15:50.645Z,96413.16
2023-05-06T16:18:19.545Z,96448.53
2023-05-06T16:20:51.557Z,96434.81
2023-05-06T16:23:21.324Z,96434.31
2023-05-06T16:25:49.550Z,96469.53
2023-05-06T16:28:17.791Z,96448.66
2023-05-06T16:30:46.380Z,96471.56
2023-05-06T16:33:15.938Z,96448.22
2023-05-06T16:35:44.108Z,96461.50
2023-05-06T16:38:12.320Z,96482.13
2023-05-06T16:40:50.920Z,96479.19
2023-05-06T16:43:19.590Z,96475.97
2023-05-06T16:45:47.794Z,96492.66
2023-05-06T16:48:17.690Z,96417.56
2023-05-06T16:50:46.229Z,96478.47
2023-05-06T16:53:14.705Z,96461.88
2023-05-06T16:55:48.544Z,96477.34
2023-05-06T16:58:17.048Z,96429.13
2023-05-06T17:00:45.331Z,96493.16
2023-05-06T17:03:13.698Z,96381.56
2023-05-06T17:05:43.421Z,96466.19
2023-05-06T17:08:12.047Z,96448.59
2023-05-06T17:10:40.354Z,96453.59
2023-05-06T17:13:08.985Z,96430.91
2023-05-06T17:15:37.252Z,96557.06
2023-05-06T17:18:05.778Z,96452.53
2023-05-06T17:20:47.546Z,96389.47
2023-05-06T17:23:23.749Z,96466.69
2023-05-06T17:25:52.188Z,96393.28
2023-05-06T17:28:20.988Z,96486.81
2023-05-06T17:30:49.201Z,96413.56
2023-05-06T17:33:17.403Z,96413.84
2023-05-06T17:35:45.937Z,96460.13
2023-05-06T17:38:16.790Z,96405.75
2023-05-06T17:40:46.288Z,96472.06
2023-05-06T17:43:19.510Z,96403.72
2023-05-06T17:45:47.742Z,96334.78
2023-05-06T17:48:15.977Z,96441.03
2023-05-06T17:50:44.141Z,96456.38
2023-05-06T17:53:12.400Z,96415.41
2023-05-06T17:55:41.467Z,96476.81
2023-05-06T17:58:11.059Z,96415.69
2023-05-06T18:00:39.448Z,96479.78
2023-05-06T18:03:07.791Z,96466.06
2023-05-06T18:05:37.109Z,96429.53
2023-05-06T18:08:06.760Z,96249.44
2023-05-06T18:10:35.016Z,96414.47
2023-05-06T18:13:28.171Z,96430.78
2023-05-06T18:15:57.982Z,96412.03
2023-05-06T18:18:26.280Z,96439.13
2023-05-06T18:20:54.449Z,96439.16
2023-05-06T18:23:22.602Z,96427.75
2023-05-06T18:25:50.770Z,96439.22
2023-05-06T18:28:19.185Z,96431.78
2023-05-06T18:30:47.384Z,96453.31
2023-05-06T18:33:17.425Z,96445.41
2023-05-06T18:35:46.066Z,96464.66
2023-05-06T18:38:14.267Z,96426.63
2023-05-06T18:40:43.711Z,96456.34
2023-05-06T18:43:11.878Z,96466.41
2023-05-06T18:45:40.008Z,96487.66
2023-05-06T18:48:08.354Z,96459.56
2023-05-06T18:50:38.308Z,96460.13
2023-05-06T18:53:06.520Z,96431.09
2023-05-06T18:55:35.085Z,96481.03
2023-05-06T18:58:05.628Z,96425.91
2023-05-06T19:00:33.974Z,96487.63
2023-05-06T19:03:02.295Z,96483.84
2023-05-06T19:05:30.644Z,96459.72
2023-05-06T19:08:00.818Z,96412.88
2023-05-06T19:10:29.007Z,96492.78
2023-05-06T19:12:57.229Z,96481.78
2023-05-06T19:15:25.457Z,96434.94
2023-05-06T19:17:53.730Z,96495.97
2023-05-06T19:20:21.916Z,96430.09
2023-05-06T19:22:50.324Z,96474.69
2023-05-06T19:25:19.970Z,96521.38
2023-05-06T19:27:48.178Z,96486.56
2023-05-06T19:30:16.649Z,96396.03
2023-05-06T19:32:44.950Z,96450.59
2023-05-06T19:35:13.376Z,96560.69
2023-05-06T19:37:42.004Z,96488.22
2023-05-06T19:40:11.673Z,96501.94
2023-05-06T19:42:41.192Z,96465.13
2023-05-06T19:45:10.786Z,96423.25
2023-05-06T19:47:39.743Z,96465.13
2023-05-06T19:50:09.742Z,96469.63
2023-05-06T19:52:37.989Z,96488.88
2023-05-06T19:55:07.669Z,96487.44
2023-05-06T19:57:36.981Z,96442.88
2023-05-06T20:00:10.121Z,96500.72
2023-05-06T20:02:39.207Z,96497.66
2023-05-06T20:05:09.002Z,96481.28
2023-05-06T20:07:38.616Z,96500.25
2023-05-06T20:10:10.310Z,96492.66
2023-05-06T20:12:40.244Z,96493.25
2023-05-06T20:15:23.636Z,96468.50
2023-05-06T20:17:52.000Z,96523.31
2023-05-06T20:20:20.528Z,96572.34
2023-05-06T20:22:48.821Z,96520.22
2023-05-06T20:25:18.765Z,96535.34
2023-05-06T20:27:47.501Z,96528.03
2023-05-06T20:30:16.132Z,96514.16
2023-05-06T20:32:49.556Z,96479.81
2023-05-06T20:35:19.732Z,96542.38
2023-05-06T20:37:47.936Z,96535.03
2023-05-06T20:40:16.343Z,96483.03
2023-05-06T20:42:44.540Z,96559.31
2023-05-06T20:45:12.921Z,96487.09
2023-05-06T20:47:41.375Z,96476.81
2023-05-06T20:50:16.764Z,96527.78
2023-05-06T20:52:46.041Z,96558.84
2023-05-06T20:55:15.214Z,96570.09
2023-05-06T20:57:44.353Z,96518.72
2023-05-06T21:00:14.740Z,96502.22
2023-05-06T21:02:43.146Z,96472.09
2023-05-06T21:05:13.119Z,96532.88
2023-05-06T21:07:41.669Z,96502.88
2023-05-06T21:10:11.932Z,96479.53
2023-05-06T21:12:40.313Z,96487.88
2023-05-06T21:15:10.311Z,96480.31
2023-05-06T21:17:38.798Z,96493.56
2023-05-06T21:20:10.649Z,96540.38
2023-05-06T21:22:40.952Z,96530.22
2023-05-06T21:25:13.098Z,96564.91
2023-05-06T21:27:41.589Z,96496.41
2023-05-06T21:30:11.163Z,96509.53
2023-05-06T21:32:39.393Z,96514.56
2023-05-06T21:35:08.801Z,96564.47
2023-05-06T21:37:37.349Z,96491.72
2023-05-06T21:40:13.389Z,96484.63
2023-05-06T21:42:42.229Z,96519.72
2023-05-06T21:45:12.346Z,96506.06
2023-05-06T21:47:40.883Z,96505.47
2023-05-06T21:50:10.774Z,96493.59
2023-05-06T21:52:39.111Z,96482.06
2023-05-06T21:55:09.082Z,96511.25
2023-05-06T21:57:39.240Z,96549.03
2023-05-06T22:00:12.164Z,96512.75
2023-05-06T22:02:41.252Z,96537.44
2023-05-06T22:05:10.097Z,96554.38
2023-05-06T22:07:38.546Z,96526.50
2023-05-06T22:10:13.503Z,96507.53
2023-05-06T22:12:43.509Z,96507.19
2023-05-06T22:15:14.596Z,96515.31
2023-05-06T22:17:42.907Z,96480.50
2023-05-06T22:20:12.111Z,96483.41
2023-05-06T22:22:40.414Z,96478.38
2023-05-06T22:25:10.240Z,96509.09
2023-05-06T22:27:38.785Z,96460.25
2023-05-06T22:30:10.522Z,96522.97
2023-05-06T22:32:38.945Z,96531.91
2023-05-06T22:35:09.338Z,96513.56
2023-05-06T22:37:37.837Z,96473.66
2023-05-06T22:40:08.154Z,96499.72
2023-05-06T22:42:36.464Z,96512.59
2023-05-06T22:45:05.399Z,96489.88
2023-05-06T22:47:35.013Z,96517.06
2023-05-06T22:50:03.686Z,96546.50
2023-05-06T22:52:31.925Z,96498.75
2023-05-06T22:55:00.165Z,96383.94
2023-05-06T22:57:28.392Z,96495.66
2023-05-06T22:59:56.620Z,96504.91
2023-05-06T23:02:24.907Z,96527.81
2023-05-06T23:04:54.495Z,96461.31
2023-05-06T23:07:22.651Z,96514.75
2023-05-06T23:09:50.973Z,96516.41
2023-05-06T23:12:19.233Z,96521.06
2023-05-06T23:14:47.447Z,96531.91
2023-05-06T23:17:15.673Z,96557.16
2023-05-06T23:19:44.223Z,96498.09
2023-05-06T23:22:15.372Z,96496.56
2023-05-06T23:24:43.689Z,96490.97
2023-05-06T23:27:11.976Z,96489.41
2023-05-06T23:29:40.164Z,96494.00
2023-05-06T23:32:08.514Z,96496.53
2023-05-06T23:34:36.774Z,96477.47
2023-05-06T23:37:05.011Z,96498.13
2023-05-06T23:39:34.556Z,96511.72
2023-05-06T23:42:03.324Z,96525.91
2023-05-06T23:44:31.536Z,96447.94
2023-05-06T23:46:59.778Z,96463.06
2023-05-06T23:49:27.975Z,96491.59
2023-05-06T23:51:56.425Z,96507.59
2023-05-06T23:54:24.668Z,96478.84
2023-05-06T23:56:54.383Z,96468.28
2023-05-06T23:59:22.648Z,96491.75
